sensor_id;sensor_type;location;lat;lon;timestamp;pressure;altitude;pressure_sealevel;temperature;humidity
59873;BME280;50750;51.636;4.948;2023-02-11T00:00:17;103627.88;;;9.64;61.75
59873;BME280;50750;51.636;4.948;2023-02-11T00:03:02;103628.92;;;9.64;61.62
59873;BME280;50750;51.636;4.948;2023-02-11T00:05:28;103622.81;;;9.64;61.67
59873;BME280;50750;51.636;4.948;2023-02-11T00:07:54;103624.92;;;9.65;61.68
59873;BME280;50750;51.636;4.948;2023-02-11T00:10:20;103623.85;;;9.64;61.56
59873;BME280;50750;51.636;4.948;2023-02-11T00:12:46;103624.21;;;9.64;61.59
59873;BME280;50750;51.636;4.948;2023-02-11T00:15:12;103622.29;;;9.64;61.64
59873;BME280;50750;51.636;4.948;2023-02-11T00:17:38;103611.44;;;9.64;61.60
59873;BME280;50750;51.636;4.948;2023-02-11T00:20:04;103604.08;;;9.63;61.56
59873;BME280;50750;51.636;4.948;2023-02-11T00:22:30;103605.65;;;9.63;61.47
59873;BME280;50750;51.636;4.948;2023-02-11T00:24:56;103604.23;;;9.62;61.66
59873;BME280;50750;51.636;4.948;2023-02-11T00:27:22;103609.84;;;9.63;61.62
59873;BME280;50750;51.636;4.948;2023-02-11T00:29:48;103612.30;;;9.63;61.66
59873;BME280;50750;51.636;4.948;2023-02-11T00:32:14;103614.73;;;9.62;61.69
59873;BME280;50750;51.636;4.948;2023-02-11T00:34:40;103611.91;;;9.61;61.55
59873;BME280;50750;51.636;4.948;2023-02-11T00:37:05;103614.71;;;9.61;61.65
59873;BME280;50750;51.636;4.948;2023-02-11T00:39:31;103612.27;;;9.61;61.70
59873;BME280;50750;51.636;4.948;2023-02-11T00:41:57;103609.80;;;9.61;61.67
59873;BME280;50750;51.636;4.948;2023-02-11T00:44:23;103603.33;;;9.61;61.70
59873;BME280;50750;51.636;4.948;2023-02-11T00:46:49;103603.67;;;9.60;61.62
59873;BME280;50750;51.636;4.948;2023-02-11T00:49:15;103607.35;;;9.60;61.68
59873;BME280;50750;51.636;4.948;2023-02-11T00:51:41;103601.92;;;9.60;61.85
59873;BME280;50750;51.636;4.948;2023-02-11T00:54:07;103600.35;;;9.60;61.80
59873;BME280;50750;51.636;4.948;2023-02-11T00:56:33;103604.73;;;9.60;61.92
59873;BME280;50750;51.636;4.948;2023-02-11T00:58:59;103601.92;;;9.61;61.88
59873;BME280;50750;51.636;4.948;2023-02-11T01:01:25;103590.60;;;9.62;61.87
59873;BME280;50750;51.636;4.948;2023-02-11T01:03:51;103591.13;;;9.63;61.79
59873;BME280;50750;51.636;4.948;2023-02-11T01:06:17;103594.27;;;9.63;61.78
59873;BME280;50750;51.636;4.948;2023-02-11T01:08:43;103592.37;;;9.64;61.76
59873;BME280;50750;51.636;4.948;2023-02-11T01:11:15;103592.74;;;9.65;61.83
59873;BME280;50750;51.636;4.948;2023-02-11T01:13:42;103593.27;;;9.66;61.77
59873;BME280;50750;51.636;4.948;2023-02-11T01:16:09;103595.89;;;9.66;61.74
59873;BME280;50750;51.636;4.948;2023-02-11T01:18:35;103598.01;;;9.66;61.77
59873;BME280;50750;51.636;4.948;2023-02-11T01:21:02;103594.14;;;9.66;61.70
59873;BME280;50750;51.636;4.948;2023-02-11T01:23:28;103599.94;;;9.67;61.75
59873;BME280;50750;51.636;4.948;2023-02-11T01:25:55;103601.01;;;9.67;61.68
59873;BME280;50750;51.636;4.948;2023-02-11T01:28:23;103602.02;;;9.66;61.70
59873;BME280;50750;51.636;4.948;2023-02-11T01:30:50;103605.52;;;9.66;61.71
59873;BME280;50750;51.636;4.948;2023-02-11T01:33:17;103603.77;;;9.66;61.56
59873;BME280;50750;51.636;4.948;2023-02-11T01:35:43;103596.95;;;9.66;61.68
59873;BME280;50750;51.636;4.948;2023-02-11T01:38:19;103595.72;;;9.66;61.70
59873;BME280;50750;51.636;4.948;2023-02-11T01:40:51;103583.82;;;9.65;61.57
59873;BME280;50750;51.636;4.948;2023-02-11T01:43:18;103588.02;;;9.65;61.67
59873;BME280;50750;51.636;4.948;2023-02-11T01:48:20;103587.84;;;9.65;61.75
59873;BME280;50750;51.636;4.948;2023-02-11T01:50:50;103580.13;;;9.65;61.75
59873;BME280;50750;51.636;4.948;2023-02-11T01:53:17;103571.19;;;9.64;61.76
59873;BME280;50750;51.636;4.948;2023-02-11T01:56:03;103565.24;;;9.63;61.73
59873;BME280;50750;51.636;4.948;2023-02-11T01:58:50;103561.56;;;9.63;61.62
59873;BME280;50750;51.636;4.948;2023-02-11T02:01:21;103565.23;;;9.64;61.74
59873;BME280;50750;51.636;4.948;2023-02-11T02:03:49;103566.46;;;9.62;61.75
59873;BME280;50750;51.636;4.948;2023-02-11T02:06:18;103567.69;;;9.63;61.83
59873;BME280;50750;51.636;4.948;2023-02-11T02:08:54;103572.05;;;9.63;61.91
59873;BME280;50750;51.636;4.948;2023-02-11T02:11:21;103580.98;;;9.63;61.87
59873;BME280;50750;51.636;4.948;2023-02-11T02:13:48;103584.48;;;9.64;61.93
59873;BME280;50750;51.636;4.948;2023-02-11T02:16:16;103582.07;;;9.65;61.80
59873;BME280;50750;51.636;4.948;2023-02-11T02:18:47;103578.40;;;9.66;61.75
59873;BME280;50750;51.636;4.948;2023-02-11T02:35:10;103572.36;;;9.70;61.67
59873;BME280;50750;51.636;4.948;2023-02-11T02:40:46;103566.41;;;9.70;61.63
59873;BME280;50750;51.636;4.948;2023-02-11T02:43:14;103570.26;;;9.70;61.66
59873;BME280;50750;51.636;4.948;2023-02-11T02:45:41;103568.51;;;9.70;61.74
59873;BME280;50750;51.636;4.948;2023-02-11T02:48:25;103555.91;;;9.70;61.75
59873;BME280;50750;51.636;4.948;2023-02-11T02:51:02;103557.84;;;9.70;61.64
59873;BME280;50750;51.636;4.948;2023-02-11T03:05:15;103567.97;;;9.69;61.59
59873;BME280;50750;51.636;4.948;2023-02-11T03:08:06;103576.34;;;9.69;61.81
59873;BME280;50750;51.636;4.948;2023-02-11T03:10:38;103577.39;;;9.68;61.77
59873;BME280;50750;51.636;4.948;2023-02-11T03:13:05;103574.77;;;9.68;61.59
59873;BME280;50750;51.636;4.948;2023-02-11T03:15:36;103574.41;;;9.68;61.85
59873;BME280;50750;51.636;4.948;2023-02-11T03:18:04;103572.48;;;9.68;61.89
59873;BME280;50750;51.636;4.948;2023-02-11T03:20:34;103564.09;;;9.68;61.90
59873;BME280;50750;51.636;4.948;2023-02-11T03:23:10;103557.96;;;9.67;61.79
59873;BME280;50750;51.636;4.948;2023-02-11T03:25:44;103556.73;;;9.67;61.89
59873;BME280;50750;51.636;4.948;2023-02-11T03:28:30;103558.83;;;9.67;61.90
59873;BME280;50750;51.636;4.948;2023-02-11T03:34:09;103557.45;;;9.67;61.90
59873;BME280;50750;51.636;4.948;2023-02-11T03:37:26;103552.20;;;9.68;61.91
59873;BME280;50750;51.636;4.948;2023-02-11T03:39:38;103554.33;;;9.70;61.96
59873;BME280;50750;51.636;4.948;2023-02-11T03:42:07;103555.56;;;9.70;61.94
59873;BME280;50750;51.636;4.948;2023-02-11T03:44:39;103553.11;;;9.70;61.84
59873;BME280;50750;51.636;4.948;2023-02-11T03:47:11;103557.33;;;9.71;61.77
59873;BME280;50750;51.636;4.948;2023-02-11T03:49:38;103558.58;;;9.72;61.81
59873;BME280;50750;51.636;4.948;2023-02-11T03:52:05;103557.89;;;9.73;61.84
59873;BME280;50750;51.636;4.948;2023-02-11T03:54:33;103551.41;;;9.72;61.92
59873;BME280;50750;51.636;4.948;2023-02-11T03:57:00;103546.14;;;9.72;61.90
59873;BME280;50750;51.636;4.948;2023-02-11T03:59:27;103548.61;;;9.72;61.81
59873;BME280;50750;51.636;4.948;2023-02-11T04:01:53;103546.33;;;9.73;61.85
59873;BME280;50750;51.636;4.948;2023-02-11T04:04:20;103548.61;;;9.72;61.77
59873;BME280;50750;51.636;4.948;2023-02-11T04:06:46;103547.21;;;9.73;61.83
59873;BME280;50750;51.636;4.948;2023-02-11T04:09:12;103552.98;;;9.72;61.81
59873;BME280;50750;51.636;4.948;2023-02-11T04:11:39;103551.58;;;9.72;61.97
59873;BME280;50750;51.636;4.948;2023-02-11T04:14:05;103550.35;;;9.72;61.98
59873;BME280;50750;51.636;4.948;2023-02-11T04:16:31;103546.12;;;9.71;62.01
59873;BME280;50750;51.636;4.948;2023-02-11T04:18:57;103541.23;;;9.71;61.92
59873;BME280;50750;51.636;4.948;2023-02-11T04:21:23;103538.77;;;9.71;61.93
59873;BME280;50750;51.636;4.948;2023-02-11T04:23:49;103534.05;;;9.70;62.00
59873;BME280;50750;51.636;4.948;2023-02-11T04:26:14;103533.70;;;9.71;62.01
59873;BME280;50750;51.636;4.948;2023-02-11T04:28:40;103527.05;;;9.71;61.86
59873;BME280;50750;51.636;4.948;2023-02-11T04:31:06;103526.16;;;9.70;61.98
59873;BME280;50750;51.636;4.948;2023-02-11T04:33:32;103527.22;;;9.70;61.99
59873;BME280;50750;51.636;4.948;2023-02-11T04:35:58;103526.67;;;9.69;62.13
59873;BME280;50750;51.636;4.948;2023-02-11T04:38:24;103525.44;;;9.69;62.05
59873;BME280;50750;51.636;4.948;2023-02-11T04:40:50;103527.36;;;9.69;61.97
59873;BME280;50750;51.636;4.948;2023-02-11T04:43:16;103526.66;;;9.69;62.02
59873;BME280;50750;51.636;4.948;2023-02-11T04:45:42;103527.53;;;9.68;61.99
59873;BME280;50750;51.636;4.948;2023-02-11T04:48:08;103531.20;;;9.68;61.97
59873;BME280;50750;51.636;4.948;2023-02-11T04:50:34;103529.98;;;9.68;62.04
59873;BME280;50750;51.636;4.948;2023-02-11T04:53:00;103531.04;;;9.69;61.97
59873;BME280;50750;51.636;4.948;2023-02-11T04:55:25;103532.29;;;9.70;61.95
59873;BME280;50750;51.636;4.948;2023-02-11T04:57:51;103540.17;;;9.71;61.91
59873;BME280;50750;51.636;4.948;2023-02-11T05:00:17;103537.38;;;9.72;61.92
59873;BME280;50750;51.636;4.948;2023-02-11T05:02:43;103539.69;;;9.73;61.91
59873;BME280;50750;51.636;4.948;2023-02-11T05:05:09;103530.59;;;9.73;61.85
59873;BME280;50750;51.636;4.948;2023-02-11T05:07:35;103528.67;;;9.74;61.89
59873;BME280;50750;51.636;4.948;2023-02-11T05:10:01;103532.70;;;9.74;61.88
59873;BME280;50750;51.636;4.948;2023-02-11T05:12:27;103536.20;;;9.74;61.97
59873;BME280;50750;51.636;4.948;2023-02-11T05:14:53;103544.62;;;9.75;62.01
59873;BME280;50750;51.636;4.948;2023-02-11T05:17:19;103548.45;;;9.75;62.02
59873;BME280;50750;51.636;4.948;2023-02-11T05:19:45;103545.13;;;9.74;61.99
59873;BME280;50750;51.636;4.948;2023-02-11T05:22:11;103543.73;;;9.74;62.08
59873;BME280;50750;51.636;4.948;2023-02-11T05:24:36;103539.35;;;9.74;62.01
59873;BME280;50750;51.636;4.948;2023-02-11T05:27:02;103545.64;;;9.74;62.02
59873;BME280;50750;51.636;4.948;2023-02-11T05:29:28;103546.35;;;9.74;61.94
59873;BME280;50750;51.636;4.948;2023-02-11T05:31:54;103546.52;;;9.73;62.08
59873;BME280;50750;51.636;4.948;2023-02-11T05:34:20;103549.66;;;9.73;61.96
59873;BME280;50750;51.636;4.948;2023-02-11T05:36:46;103548.79;;;9.73;61.84
59873;BME280;50750;51.636;4.948;2023-02-11T05:39:12;103545.27;;;9.72;61.99
59873;BME280;50750;51.636;4.948;2023-02-11T05:41:37;103542.66;;;9.72;62.02
59873;BME280;50750;51.636;4.948;2023-02-11T05:44:03;103536.52;;;9.72;62.08
59873;BME280;50750;51.636;4.948;2023-02-11T05:46:29;103535.27;;;9.71;61.97
59873;BME280;50750;51.636;4.948;2023-02-11T05:48:55;103532.83;;;9.71;62.00
59873;BME280;50750;51.636;4.948;2023-02-11T05:51:21;103531.08;;;9.71;62.08
59873;BME280;50750;51.636;4.948;2023-02-11T05:53:50;103526.52;;;9.70;62.08
59873;BME280;50750;51.636;4.948;2023-02-11T05:56:15;103524.94;;;9.70;61.96
59873;BME280;50750;51.636;4.948;2023-02-11T05:58:41;103518.80;;;9.70;62.15
59873;BME280;50750;51.636;4.948;2023-02-11T06:01:07;103522.14;;;9.70;62.17
59873;BME280;50750;51.636;4.948;2023-02-11T06:03:33;103518.83;;;9.70;62.04
59873;BME280;50750;51.636;4.948;2023-02-11T06:05:59;103519.89;;;9.71;62.20
59873;BME280;50750;51.636;4.948;2023-02-11T06:08:25;103519.73;;;9.72;62.14
59873;BME280;50750;51.636;4.948;2023-02-11T06:10:50;103525.70;;;9.73;62.08
59873;BME280;50750;51.636;4.948;2023-02-11T06:13:16;103533.22;;;9.74;62.13
59873;BME280;50750;51.636;4.948;2023-02-11T06:15:44;103541.45;;;9.75;62.05
59873;BME280;50750;51.636;4.948;2023-02-11T06:18:10;103544.08;;;9.75;62.00
59873;BME280;50750;51.636;4.948;2023-02-11T06:20:37;103546.20;;;9.76;62.02
59873;BME280;50750;51.636;4.948;2023-02-11T06:23:08;103544.45;;;9.76;62.10
59873;BME280;50750;51.636;4.948;2023-02-11T06:25:35;103546.55;;;9.76;62.10
59873;BME280;50750;51.636;4.948;2023-02-11T06:28:01;103544.11;;;9.76;62.12
59873;BME280;50750;51.636;4.948;2023-02-11T06:30:27;103547.95;;;9.76;62.17
59873;BME280;50750;51.636;4.948;2023-02-11T06:32:53;103545.68;;;9.77;62.21
59873;BME280;50750;51.636;4.948;2023-02-11T06:35:19;103540.95;;;9.76;62.08
59873;BME280;50750;51.636;4.948;2023-02-11T06:37:45;103546.02;;;9.76;62.14
59873;BME280;50750;51.636;4.948;2023-02-11T06:40:12;103547.94;;;9.76;62.14
59873;BME280;50750;51.636;4.948;2023-02-11T06:42:38;103546.72;;;9.76;62.06
59873;BME280;50750;51.636;4.948;2023-02-11T06:45:05;103549.34;;;9.75;62.07
59873;BME280;50750;51.636;4.948;2023-02-11T06:47:34;103548.98;;;9.74;62.21
59873;BME280;50750;51.636;4.948;2023-02-11T06:49:59;103550.89;;;9.74;62.17
59873;BME280;50750;51.636;4.948;2023-02-11T06:52:25;103550.19;;;9.74;62.29
59873;BME280;50750;51.636;4.948;2023-02-11T06:54:51;103552.64;;;9.73;62.14
59873;BME280;50750;51.636;4.948;2023-02-11T06:57:17;103550.36;;;9.73;62.11
59873;BME280;50750;51.636;4.948;2023-02-11T06:59:43;103556.31;;;9.73;62.22
59873;BME280;50750;51.636;4.948;2023-02-11T07:02:09;103563.14;;;9.73;62.16
59873;BME280;50750;51.636;4.948;2023-02-11T07:04:35;103564.17;;;9.72;62.13
59873;BME280;50750;51.636;4.948;2023-02-11T07:07:01;103566.27;;;9.72;62.14
59873;BME280;50750;51.636;4.948;2023-02-11T07:09:27;103566.09;;;9.72;62.06
59873;BME280;50750;51.636;4.948;2023-02-11T07:11:53;103565.06;;;9.72;62.12
59873;BME280;50750;51.636;4.948;2023-02-11T07:14:18;103567.16;;;9.73;62.18
59873;BME280;50750;51.636;4.948;2023-02-11T07:16:45;103574.88;;;9.75;62.32
59873;BME280;50750;51.636;4.948;2023-02-11T07:19:10;103578.41;;;9.77;62.36
59873;BME280;50750;51.636;4.948;2023-02-11T07:21:36;103586.63;;;9.77;62.22
59873;BME280;50750;51.636;4.948;2023-02-11T07:24:06;103584.89;;;9.77;62.11
59873;BME280;50750;51.636;4.948;2023-02-11T07:26:32;103583.86;;;9.78;62.17
59873;BME280;50750;51.636;4.948;2023-02-11T07:28:58;103584.21;;;9.78;62.15
59873;BME280;50750;51.636;4.948;2023-02-11T07:31:27;103584.23;;;9.79;62.03
59873;BME280;50750;51.636;4.948;2023-02-11T07:33:55;103585.98;;;9.79;62.08
59873;BME280;50750;51.636;4.948;2023-02-11T07:36:22;103588.60;;;9.79;62.07
59873;BME280;50750;51.636;4.948;2023-02-11T07:38:48;103587.55;;;9.80;62.02
59873;BME280;50750;51.636;4.948;2023-02-11T07:41:19;103591.05;;;9.79;62.00
59873;BME280;50750;51.636;4.948;2023-02-11T07:43:46;103596.30;;;9.79;62.04
59873;BME280;50750;51.636;4.948;2023-02-11T07:46:15;103600.85;;;9.79;62.02
59873;BME280;50750;51.636;4.948;2023-02-11T07:48:43;103608.73;;;9.79;61.98
59873;BME280;50750;51.636;4.948;2023-02-11T07:51:18;103606.80;;;9.79;62.10
59873;BME280;50750;51.636;4.948;2023-02-11T07:53:46;103608.20;;;9.79;62.04
59873;BME280;50750;51.636;4.948;2023-02-11T07:56:14;103609.94;;;9.78;62.16
59873;BME280;50750;51.636;4.948;2023-02-11T07:58:41;103606.42;;;9.78;62.36
59873;BME280;50750;51.636;4.948;2023-02-11T08:01:10;103608.33;;;9.77;62.14
59873;BME280;50750;51.636;4.948;2023-02-11T08:03:38;103610.61;;;9.77;62.30
59873;BME280;50750;51.636;4.948;2023-02-11T08:06:07;103611.48;;;9.77;62.24
59873;BME280;50750;51.636;4.948;2023-02-11T08:08:33;103614.28;;;9.77;62.27
59873;BME280;50750;51.636;4.948;2023-02-11T08:11:08;103619.18;;;9.77;62.23
59873;BME280;50750;51.636;4.948;2023-02-11T08:13:35;103620.58;;;9.76;62.20
59873;BME280;50750;51.636;4.948;2023-02-11T08:16:02;103625.48;;;9.76;62.14
59873;BME280;50750;51.636;4.948;2023-02-11T08:18:29;103625.30;;;9.76;62.29
59873;BME280;50750;51.636;4.948;2023-02-11T08:20:55;103631.43;;;9.77;62.34
59873;BME280;50750;51.636;4.948;2023-02-11T08:23:21;103629.52;;;9.78;62.21
59873;BME280;50750;51.636;4.948;2023-02-11T08:25:47;103632.00;;;9.79;62.23
59873;BME280;50750;51.636;4.948;2023-02-11T08:28:13;103633.40;;;9.80;62.30
59873;BME280;50750;51.636;4.948;2023-02-11T08:30:39;103632.92;;;9.81;62.24
59873;BME280;50750;51.636;4.948;2023-02-11T08:33:04;103629.95;;;9.83;62.31
59873;BME280;50750;51.636;4.948;2023-02-11T08:35:30;103629.09;;;9.83;62.29
59873;BME280;50750;51.636;4.948;2023-02-11T08:37:57;103638.74;;;9.84;62.29
59873;BME280;50750;51.636;4.948;2023-02-11T08:40:23;103636.30;;;9.85;62.29
59873;BME280;50750;51.636;4.948;2023-02-11T08:42:49;103639.27;;;9.85;62.08
59873;BME280;50750;51.636;4.948;2023-02-11T08:45:16;103642.25;;;9.85;62.36
59873;BME280;50750;51.636;4.948;2023-02-11T08:47:41;103641.73;;;9.85;62.88
59873;BME280;50750;51.636;4.948;2023-02-11T08:50:07;103640.14;;;9.84;62.69
59873;BME280;50750;51.636;4.948;2023-02-11T08:52:34;103641.37;;;9.84;62.59
59873;BME280;50750;51.636;4.948;2023-02-11T08:55:01;103645.57;;;9.85;62.50
59873;BME280;50750;51.636;4.948;2023-02-11T08:57:26;103649.23;;;9.84;62.43
59873;BME280;50750;51.636;4.948;2023-02-11T08:59:52;103645.03;;;9.83;62.48
59873;BME280;50750;51.636;4.948;2023-02-11T09:02:18;103651.51;;;9.83;62.29
59873;BME280;50750;51.636;4.948;2023-02-11T09:04:44;103653.43;;;9.83;62.43
59873;BME280;50750;51.636;4.948;2023-02-11T09:07:10;103651.67;;;9.83;62.46
59873;BME280;50750;51.636;4.948;2023-02-11T09:09:37;103651.14;;;9.82;62.30
59873;BME280;50750;51.636;4.948;2023-02-11T09:12:03;103650.96;;;9.83;62.44
59873;BME280;50750;51.636;4.948;2023-02-11T09:14:29;103652.17;;;9.82;62.44
59873;BME280;50750;51.636;4.948;2023-02-11T09:16:55;103647.80;;;9.82;62.55
59873;BME280;50750;51.636;4.948;2023-02-11T09:19:22;103649.72;;;9.81;62.50
59873;BME280;50750;51.636;4.948;2023-02-11T09:21:48;103651.83;;;9.82;62.56
59873;BME280;50750;51.636;4.948;2023-02-11T09:24:14;103654.82;;;9.83;62.43
59873;BME280;50750;51.636;4.948;2023-02-11T09:26:41;103658.16;;;9.84;62.38
59873;BME280;50750;51.636;4.948;2023-02-11T09:29:08;103660.79;;;9.84;62.35
59873;BME280;50750;51.636;4.948;2023-02-11T09:31:34;103668.16;;;9.86;62.47
59873;BME280;50750;51.636;4.948;2023-02-11T09:34:02;103668.20;;;9.87;62.35
59873;BME280;50750;51.636;4.948;2023-02-11T09:36:32;103667.14;;;9.87;62.28
59873;BME280;50750;51.636;4.948;2023-02-11T09:39:00;103664.52;;;9.88;62.25
59873;BME280;50750;51.636;4.948;2023-02-11T09:44:27;103672.74;;;9.88;62.25
59873;BME280;50750;51.636;4.948;2023-02-11T09:47:06;103675.40;;;9.89;62.36
59873;BME280;50750;51.636;4.948;2023-02-11T09:49:49;103668.92;;;9.89;62.42
59873;BME280;50750;51.636;4.948;2023-02-11T09:52:36;103668.02;;;9.88;62.45
59873;BME280;50750;51.636;4.948;2023-02-11T09:55:18;103677.83;;;9.88;62.42
59873;BME280;50750;51.636;4.948;2023-02-11T09:57:45;103678.52;;;9.87;62.27
59873;BME280;50750;51.636;4.948;2023-02-11T10:00:25;103681.32;;;9.87;62.29
59873;BME280;50750;51.636;4.948;2023-02-11T10:03:26;103681.14;;;9.87;62.29
59873;BME280;50750;51.636;4.948;2023-02-11T10:09:27;103691.12;;;9.87;62.27
59873;BME280;50750;51.636;4.948;2023-02-11T10:12:31;103689.72;;;9.86;62.33
59873;BME280;50750;51.636;4.948;2023-02-11T10:15:23;103688.30;;;9.86;62.35
59873;BME280;50750;51.636;4.948;2023-02-11T10:18:05;103687.08;;;9.86;62.27
59873;BME280;50750;51.636;4.948;2023-02-11T10:23:22;103694.76;;;9.86;62.44
59873;BME280;50750;51.636;4.948;2023-02-11T10:25:52;103696.67;;;9.85;62.43
59873;BME280;50750;51.636;4.948;2023-02-11T10:28:26;103696.15;;;9.85;62.47
59873;BME280;50750;51.636;4.948;2023-02-11T10:31:00;103696.52;;;9.86;62.30
59873;BME280;50750;51.636;4.948;2023-02-11T10:33:35;103705.12;;;9.87;62.43
59873;BME280;50750;51.636;4.948;2023-02-11T10:36:03;103714.23;;;9.88;62.42
59873;BME280;50750;51.636;4.948;2023-02-11T10:38:29;103713.04;;;9.89;62.44
59873;BME280;50750;51.636;4.948;2023-02-11T10:40:56;103718.48;;;9.90;62.42
59873;BME280;50750;51.636;4.948;2023-02-11T10:43:25;103721.12;;;9.91;62.38
59873;BME280;50750;51.636;4.948;2023-02-11T10:45:54;103726.22;;;9.92;62.25
59873;BME280;50750;51.636;4.948;2023-02-11T10:53:35;103740.06;;;9.93;62.23
59873;BME280;50750;51.636;4.948;2023-02-11T10:56:02;103741.30;;;9.93;62.53
59873;BME280;50750;51.636;4.948;2023-02-11T11:01:16;103744.45;;;9.94;62.19
59873;BME280;50750;51.636;4.948;2023-02-11T11:03:50;103737.45;;;9.93;62.21
59873;BME280;50750;51.636;4.948;2023-02-11T11:06:29;103736.92;;;9.93;62.11
59873;BME280;50750;51.636;4.948;2023-02-11T11:08:56;103737.79;;;9.93;62.11
59873;BME280;50750;51.636;4.948;2023-02-11T11:11:24;103744.97;;;9.93;62.16
59873;BME280;50750;51.636;4.948;2023-02-11T11:16:51;103752.84;;;9.93;62.32
59873;BME280;50750;51.636;4.948;2023-02-11T11:19:23;103742.67;;;9.93;62.23
59873;BME280;50750;51.636;4.948;2023-02-11T11:21:53;103742.15;;;9.93;62.32
59873;BME280;50750;51.636;4.948;2023-02-11T11:25:00;103738.83;;;9.93;62.41
59873;BME280;50750;51.636;4.948;2023-02-11T11:27:23;103742.67;;;9.93;62.43
59873;BME280;50750;51.636;4.948;2023-02-11T11:29:51;103745.83;;;9.93;62.27
59873;BME280;50750;51.636;4.948;2023-02-11T11:32:24;103754.23;;;9.92;62.31
59873;BME280;50750;51.636;4.948;2023-02-11T11:34:52;103750.55;;;9.92;62.42
59873;BME280;50750;51.636;4.948;2023-02-11T11:37:26;103746.54;;;9.93;62.41
59873;BME280;50750;51.636;4.948;2023-02-11T11:42:32;103740.80;;;9.95;63.06
59873;BME280;50750;51.636;4.948;2023-02-11T11:45:17;103743.65;;;9.98;63.40
59873;BME280;50750;51.636;4.948;2023-02-11T11:50:59;103747.57;;;10.02;63.94
59873;BME280;50750;51.636;4.948;2023-02-11T11:53:28;103752.33;;;10.04;64.34
59873;BME280;50750;51.636;4.948;2023-02-11T11:58:24;103754.83;;;10.06;64.87
59873;BME280;50750;51.636;4.948;2023-02-11T12:16:50;103758.08;;;10.12;64.78
59873;BME280;50750;51.636;4.948;2023-02-11T12:22:11;103751.30;;;10.14;64.92
59873;BME280;50750;51.636;4.948;2023-02-11T12:32:48;103745.39;;;10.16;64.20
59873;BME280;50750;51.636;4.948;2023-02-11T12:35:49;103744.88;;;10.17;64.09
59873;BME280;50750;51.636;4.948;2023-02-11T12:40:48;103739.27;;;10.17;63.95
59873;BME280;50750;51.636;4.948;2023-02-11T12:43:39;103739.44;;;10.17;63.98
59873;BME280;50750;51.636;4.948;2023-02-11T12:49:00;103735.23;;;10.16;64.28
59873;BME280;50750;51.636;4.948;2023-02-11T12:57:04;103719.30;;;10.17;63.98
59873;BME280;50750;51.636;4.948;2023-02-11T12:59:54;103720.70;;;10.17;64.06
59873;BME280;50750;51.636;4.948;2023-02-11T13:05:22;103724.42;;;10.19;63.82
59873;BME280;50750;51.636;4.948;2023-02-11T13:07:50;103723.20;;;10.20;63.74
59873;BME280;50750;51.636;4.948;2023-02-11T13:10:29;103723.77;;;10.21;63.65
59873;BME280;50750;51.636;4.948;2023-02-11T13:12:58;103722.72;;;10.22;63.50
59873;BME280;50750;51.636;4.948;2023-02-11T13:15:47;103724.30;;;10.23;63.54
59873;BME280;50750;51.636;4.948;2023-02-11T13:24:01;103705.42;;;10.24;63.51
59873;BME280;50750;51.636;4.948;2023-02-11T13:26:32;103705.94;;;10.24;63.45
59873;BME280;50750;51.636;4.948;2023-02-11T13:30:02;103704.70;;;10.23;63.43
59873;BME280;50750;51.636;4.948;2023-02-11T13:32:10;103715.02;;;10.23;63.46
59873;BME280;50750;51.636;4.948;2023-02-11T13:37:18;103702.92;;;10.22;63.36
59873;BME280;50750;51.636;4.948;2023-02-11T13:40:05;103702.40;;;10.22;63.50
59873;BME280;50750;51.636;4.948;2023-02-11T13:42:47;103705.91;;;10.21;63.35
59873;BME280;50750;51.636;4.948;2023-02-11T13:47:57;103703.42;;;10.20;63.31
59873;BME280;50750;51.636;4.948;2023-02-11T13:50:24;103701.66;;;10.21;63.34
59873;BME280;50750;51.636;4.948;2023-02-11T13:52:59;103700.08;;;10.20;63.49
59873;BME280;50750;51.636;4.948;2023-02-11T13:55:26;103696.76;;;10.19;63.44
59873;BME280;50750;51.636;4.948;2023-02-11T14:09:33;103708.75;;;10.24;63.58
59873;BME280;50750;51.636;4.948;2023-02-11T14:12:21;103708.40;;;10.25;63.60
59873;BME280;50750;51.636;4.948;2023-02-11T14:15:19;103711.41;;;10.26;63.60
59873;BME280;50750;51.636;4.948;2023-02-11T14:17:45;103713.71;;;10.27;63.58
59873;BME280;50750;51.636;4.948;2023-02-11T14:20:36;103715.84;;;10.27;63.55
59873;BME280;50750;51.636;4.948;2023-02-11T14:23:04;103713.73;;;10.27;63.69
59873;BME280;50750;51.636;4.948;2023-02-11T14:25:30;103712.16;;;10.28;63.61
59873;BME280;50750;51.636;4.948;2023-02-11T14:41:53;103714.09;;;10.27;63.65
59873;BME280;50750;51.636;4.948;2023-02-11T14:44:25;103716.54;;;10.27;63.70
59873;BME280;50750;51.636;4.948;2023-02-11T14:46:53;103710.22;;;10.27;63.82
59873;BME280;50750;51.636;4.948;2023-02-11T14:49:27;103709.71;;;10.28;63.82
59873;BME280;50750;51.636;4.948;2023-02-11T14:52:05;103714.98;;;10.29;63.97
59873;BME280;50750;51.636;4.948;2023-02-11T14:54:32;103712.56;;;10.31;64.10
59873;BME280;50750;51.636;4.948;2023-02-11T14:57:18;103717.67;;;10.32;64.18
59873;BME280;50750;51.636;4.948;2023-02-11T14:59:59;103717.70;;;10.34;64.24
59873;BME280;50750;51.636;4.948;2023-02-11T15:02:33;103723.16;;;10.35;64.29
59873;BME280;50750;51.636;4.948;2023-02-11T15:05:32;103722.47;;;10.37;64.35
59873;BME280;50750;51.636;4.948;2023-02-11T15:08:00;103720.40;;;10.38;64.43
59873;BME280;50750;51.636;4.948;2023-02-11T15:10:43;103720.25;;;10.40;64.84
59873;BME280;50750;51.636;4.948;2023-02-11T15:13:16;103717.80;;;10.40;64.99
59873;BME280;50750;51.636;4.948;2023-02-11T15:15:43;103718.52;;;10.41;64.71
59873;BME280;50750;51.636;4.948;2023-02-11T15:18:19;103724.29;;;10.42;64.62
59873;BME280;50750;51.636;4.948;2023-02-11T15:20:48;103734.29;;;10.42;64.61
59873;BME280;50750;51.636;4.948;2023-02-11T15:23:33;103733.76;;;10.42;64.61
59873;BME280;50750;51.636;4.948;2023-02-11T15:25:59;103731.14;;;10.42;64.78
59873;BME280;50750;51.636;4.948;2023-02-11T15:28:34;103732.38;;;10.42;64.64
59873;BME280;50750;51.636;4.948;2023-02-11T15:31:10;103730.29;;;10.43;64.60